sensor_id;sensor_type;location;lat;lon;timestamp;pressure;altitude;pressure_sealevel;temperature;humidity
53758;BME280;39674;59.860;30.672;2022-12-11T00:01:07;101328.31;;;-5.02;100.00
53758;BME280;39674;59.860;30.672;2022-12-11T00:03:37;101321.50;;;-5.00;100.00
53758;BME280;39674;59.860;30.672;2022-12-11T00:06:12;101330.06;;;-4.99;100.00
53758;BME280;39674;59.860;30.672;2022-12-11T00:08:41;101338.69;;;-4.98;100.00
53758;BME280;39674;59.860;30.672;2022-12-11T00:11:10;101330.94;;;-5.00;100.00
53758;BME280;39674;59.860;30.672;2022-12-11T00:13:40;101338.69;;;-4.98;100.00
53758;BME280;39674;59.860;30.672;2022-12-11T00:16:09;101338.69;;;-4.98;100.00
53758;BME280;39674;59.860;30.672;2022-12-11T00:18:41;101335.28;;;-4.97;100.00
53758;BME280;39674;59.860;30.672;2022-12-11T00:21:10;101333.53;;;-4.98;100.00
53758;BME280;39674;59.860;30.672;2022-12-11T00:23:45;101338.69;;;-4.98;100.00
53758;BME280;39674;59.860;30.672;2022-12-11T00:26:14;101332.72;;;-4.97;100.00
53758;BME280;39674;59.860;30.672;2022-12-11T00:28:44;101338.69;;;-4.98;100.00
53758;BME280;39674;59.860;30.672;2022-12-11T00:31:13;101343.84;;;-4.98;100.00
53758;BME280;39674;59.860;30.672;2022-12-11T00:33:45;101337.88;;;-4.97;100.00
53758;BME280;39674;59.860;30.672;2022-12-11T00:36:16;101343.91;;;-4.95;100.00
53758;BME280;39674;59.860;30.672;2022-12-11T00:38:51;101337.03;;;-4.96;100.00
53758;BME280;39674;59.860;30.672;2022-12-11T00:41:20;101342.19;;;-4.96;100.00
53758;BME280;39674;59.860;30.672;2022-12-11T00:43:51;101340.44;;;-4.97;100.00
53758;BME280;39674;59.860;30.672;2022-12-11T00:46:20;101339.50;;;-5.01;100.00
53758;BME280;39674;59.860;30.672;2022-12-11T00:48:51;101335.28;;;-4.97;100.00
53758;BME280;39674;59.860;30.672;2022-12-11T00:51:20;101345.50;;;-5.01;100.00
53758;BME280;39674;59.860;30.672;2022-12-11T00:53:50;101336.91;;;-5.03;100.00
53758;BME280;39674;59.860;30.672;2022-12-11T00:56:20;101333.47;;;-5.02;100.00
53758;BME280;39674;59.860;30.672;2022-12-11T00:58:49;101330.88;;;-5.02;100.00
53758;BME280;39674;59.860;30.672;2022-12-11T01:01:19;101330.84;;;-5.03;100.00
53758;BME280;39674;59.860;30.672;2022-12-11T01:03:47;101332.59;;;-5.02;100.00
53758;BME280;39674;59.860;30.672;2022-12-11T01:06:23;101336.03;;;-5.02;100.00
53758;BME280;39674;59.860;30.672;2022-12-11T01:08:55;101330.94;;;-5.00;100.00
53758;BME280;39674;59.860;30.672;2022-12-11T01:11:38;101341.97;;;-5.06;100.00
53758;BME280;39674;59.860;30.672;2022-12-11T01:14:09;101336.72;;;-5.09;100.00
53758;BME280;39674;59.860;30.672;2022-12-11T01:16:42;101328.97;;;-5.10;100.00
53758;BME280;39674;59.860;30.672;2022-12-11T01:19:13;101334.09;;;-5.12;100.00
53758;BME280;39674;59.860;30.672;2022-12-11T01:21:41;101341.75;;;-5.15;100.00
53758;BME280;39674;59.860;30.672;2022-12-11T01:24:22;101333.97;;;-5.18;100.00
53758;BME280;39674;59.860;30.672;2022-12-11T01:26:53;101339.78;;;-5.25;100.00
53758;BME280;39674;59.860;30.672;2022-12-11T01:29:22;101337.91;;;-5.33;100.00
53758;BME280;39674;59.860;30.672;2022-12-11T01:31:52;101340.38;;;-5.37;100.00
53758;BME280;39674;59.860;30.672;2022-12-11T01:34:22;101348.88;;;-5.40;100.00
53758;BME280;39674;59.860;30.672;2022-12-11T01:36:51;101344.50;;;-5.44;100.00
53758;BME280;39674;59.860;30.672;2022-12-11T01:39:21;101343.56;;;-5.48;100.00
53758;BME280;39674;59.860;30.672;2022-12-11T01:41:50;101346.03;;;-5.51;100.00
53758;BME280;39674;59.860;30.672;2022-12-11T01:47:10;101350.97;;;-5.61;100.00
53758;BME280;39674;59.860;30.672;2022-12-11T01:49:41;101359.50;;;-5.62;100.00
53758;BME280;39674;59.860;30.672;2022-12-11T01:52:10;101357.72;;;-5.65;100.00
53758;BME280;39674;59.860;30.672;2022-12-11T01:54:43;101356.78;;;-5.69;100.00
53758;BME280;39674;59.860;30.672;2022-12-11T01:57:15;101355.88;;;-5.69;100.00
53758;BME280;39674;59.860;30.672;2022-12-11T01:59:45;101354.13;;;-5.70;100.00
53758;BME280;39674;59.860;30.672;2022-12-11T02:02:19;101359.22;;;-5.73;100.00
53758;BME280;39674;59.860;30.672;2022-12-11T02:04:52;101353.09;;;-5.78;100.00
53758;BME280;39674;59.860;30.672;2022-12-11T02:07:20;101351.31;;;-5.81;100.00
53758;BME280;39674;59.860;30.672;2022-12-11T02:09:51;101355.50;;;-5.85;100.00
53758;BME280;39674;59.860;30.672;2022-12-11T02:12:22;101353.72;;;-5.87;100.00
53758;BME280;39674;59.860;30.672;2022-12-11T02:14:55;101353.66;;;-5.89;100.00
53758;BME280;39674;59.860;30.672;2022-12-11T02:17:27;101353.63;;;-5.90;100.00
53758;BME280;39674;59.860;30.672;2022-12-11T02:19:58;101357.03;;;-5.91;100.00
53758;BME280;39674;59.860;30.672;2022-12-11T02:22:43;101354.44;;;-5.93;100.00
53758;BME280;39674;59.860;30.672;2022-12-11T02:25:19;101345.78;;;-5.95;100.00
53758;BME280;39674;59.860;30.672;2022-12-11T02:28:05;101358.59;;;-5.98;100.00
53758;BME280;39674;59.860;30.672;2022-12-11T02:30:36;101358.53;;;-6.01;100.00
53758;BME280;39674;59.860;30.672;2022-12-11T02:33:06;101349.94;;;-6.02;100.00
53758;BME280;39674;59.860;30.672;2022-12-11T02:35:40;101352.53;;;-6.02;100.00
53758;BME280;39674;59.860;30.672;2022-12-11T02:38:18;101363.69;;;-6.00;100.00
53758;BME280;39674;59.860;30.672;2022-12-11T02:40:49;101360.25;;;-6.02;100.00
53758;BME280;39674;59.860;30.672;2022-12-11T02:43:20;101358.38;;;-6.06;100.00
53758;BME280;39674;59.860;30.672;2022-12-11T02:45:51;101359.91;;;-6.14;100.00
53758;BME280;39674;59.860;30.672;2022-12-11T02:48:21;101353.88;;;-6.15;100.00
53758;BME280;39674;59.860;30.672;2022-12-11T02:50:55;101352.19;;;-6.14;100.00
53758;BME280;39674;59.860;30.672;2022-12-11T02:53:25;101364.09;;;-6.18;100.00
53758;BME280;39674;59.860;30.672;2022-12-11T02:55:59;101353.75;;;-6.19;100.00
53758;BME280;39674;59.860;30.672;2022-12-11T02:58:32;101364.00;;;-6.21;100.00
53758;BME280;39674;59.860;30.672;2022-12-11T03:01:02;101362.31;;;-6.20;100.00
53758;BME280;39674;59.860;30.672;2022-12-11T03:03:37;101361.47;;;-6.19;100.00
53758;BME280;39674;59.860;30.672;2022-12-11T03:06:09;101361.56;;;-6.16;100.00
53758;BME280;39674;59.860;30.672;2022-12-11T03:08:42;101366.09;;;-6.38;100.00
53758;BME280;39674;59.860;30.672;2022-12-11T03:11:11;101358.34;;;-6.39;100.00
53758;BME280;39674;59.860;30.672;2022-12-11T03:13:41;101368.66;;;-6.38;100.00
53758;BME280;39674;59.860;30.672;2022-12-11T03:16:13;101358.50;;;-6.33;100.00
53758;BME280;39674;59.860;30.672;2022-12-11T03:18:48;101357.59;;;-6.35;100.00
53758;BME280;39674;59.860;30.672;2022-12-11T03:21:23;101354.16;;;-6.36;100.00
53758;BME280;39674;59.860;30.672;2022-12-11T03:23:59;101351.59;;;-6.36;100.00
53758;BME280;39674;59.860;30.672;2022-12-11T03:26:31;101360.25;;;-6.32;100.00
53758;BME280;39674;59.860;30.672;2022-12-11T03:29:03;101357.00;;;-6.26;100.00
53758;BME280;39674;59.860;30.672;2022-12-11T03:31:36;101355.91;;;-6.35;100.00
53758;BME280;39674;59.860;30.672;2022-12-11T03:34:17;101353.09;;;-6.42;100.00
53758;BME280;39674;59.860;30.672;2022-12-11T03:36:48;101354.53;;;-6.52;100.00
53758;BME280;39674;59.860;30.672;2022-12-11T03:39:18;101360.56;;;-6.52;100.00
53758;BME280;39674;59.860;30.672;2022-12-11T03:41:51;101361.50;;;-6.50;100.00
53758;BME280;39674;59.860;30.672;2022-12-11T03:44:30;101369.31;;;-6.45;100.00
53758;BME280;39674;59.860;30.672;2022-12-11T03:47:00;101364.25;;;-6.42;100.00
53758;BME280;39674;59.860;30.672;2022-12-11T03:49:31;101364.34;;;-6.39;100.00
53758;BME280;39674;59.860;30.672;2022-12-11T03:52:06;101362.63;;;-6.40;100.00
53758;BME280;39674;59.860;30.672;2022-12-11T03:54:36;101368.53;;;-6.42;100.00
53758;BME280;39674;59.860;30.672;2022-12-11T03:57:15;101369.47;;;-6.39;100.00
53758;BME280;39674;59.860;30.672;2022-12-11T03:59:48;101363.44;;;-6.41;100.00
53758;BME280;39674;59.860;30.672;2022-12-11T04:02:17;101362.63;;;-6.40;100.00
53758;BME280;39674;59.860;30.672;2022-12-11T04:04:45;101357.38;;;-6.43;100.00
53758;BME280;39674;59.860;30.672;2022-12-11T04:07:14;101357.19;;;-6.49;100.00
53758;BME280;39674;59.860;30.672;2022-12-11T04:09:43;101357.03;;;-6.55;100.00
53758;BME280;39674;59.860;30.672;2022-12-11T04:12:14;101356.09;;;-6.57;100.00
53758;BME280;39674;59.860;30.672;2022-12-11T04:14:43;101356.94;;;-6.58;100.00
53758;BME280;39674;59.860;30.672;2022-12-11T04:17:33;101349.09;;;-6.63;100.00
53758;BME280;39674;59.860;30.672;2022-12-11T04:20:20;101355.09;;;-6.63;100.00
53758;BME280;39674;59.860;30.672;2022-12-11T04:23:10;101353.28;;;-6.67;100.00
53758;BME280;39674;59.860;30.672;2022-12-11T04:26:02;101354.75;;;-6.75;100.00
53758;BME280;39674;59.860;30.672;2022-12-11T04:28:31;101358.06;;;-6.79;100.00
53758;BME280;39674;59.860;30.672;2022-12-11T04:31:00;101358.81;;;-6.82;100.00
53758;BME280;39674;59.860;30.672;2022-12-11T04:33:32;101360.47;;;-6.84;100.00
53758;BME280;39674;59.860;30.672;2022-12-11T04:36:01;101361.25;;;-6.86;100.00
53758;BME280;39674;59.860;30.672;2022-12-11T04:38:33;101367.13;;;-6.90;100.00
53758;BME280;39674;59.860;30.672;2022-12-11T04:41:01;101363.66;;;-6.93;100.00
53758;BME280;39674;59.860;30.672;2022-12-11T04:43:31;101365.25;;;-6.96;100.00
53758;BME280;39674;59.860;30.672;2022-12-11T04:46:01;101365.91;;;-7.02;100.00
53758;BME280;39674;59.860;30.672;2022-12-11T04:48:32;101372.69;;;-7.04;100.00
53758;BME280;39674;59.860;30.672;2022-12-11T04:51:01;101367.47;;;-7.07;100.00
53758;BME280;39674;59.860;30.672;2022-12-11T04:53:29;101367.28;;;-7.13;100.00
53758;BME280;39674;59.860;30.672;2022-12-11T04:55:58;101370.56;;;-7.17;100.00
53758;BME280;39674;59.860;30.672;2022-12-11T04:58:31;101370.47;;;-7.20;100.00
53758;BME280;39674;59.860;30.672;2022-12-11T05:01:05;101378.03;;;-7.25;100.00
53758;BME280;39674;59.860;30.672;2022-12-11T05:03:40;101379.59;;;-7.30;100.00
53758;BME280;39674;59.860;30.672;2022-12-11T05:06:09;101378.56;;;-7.35;100.00
53758;BME280;39674;59.860;30.672;2022-12-11T05:08:39;101385.28;;;-7.39;100.00
53758;BME280;39674;59.860;30.672;2022-12-11T05:11:09;101388.56;;;-7.43;100.00
53758;BME280;39674;59.860;30.672;2022-12-11T05:13:38;101387.59;;;-7.47;100.00
53758;BME280;39674;59.860;30.672;2022-12-11T05:16:07;101395.16;;;-7.51;100.00
53758;BME280;39674;59.860;30.672;2022-12-11T05:18:35;101403.56;;;-7.55;100.00
53758;BME280;39674;59.860;30.672;2022-12-11T05:21:06;101393.97;;;-7.61;100.00
53758;BME280;39674;59.860;30.672;2022-12-11T05:23:35;101401.50;;;-7.66;100.00
53758;BME280;39674;59.860;30.672;2022-12-11T05:26:06;101405.63;;;-7.71;100.00
53758;BME280;39674;59.860;30.672;2022-12-11T05:28:42;101406.31;;;-7.75;100.00
53758;BME280;39674;59.860;30.672;2022-12-11T05:31:11;101414.72;;;-7.79;100.00
53758;BME280;39674;59.860;30.672;2022-12-11T05:33:44;101412.00;;;-7.84;100.00
53758;BME280;39674;59.860;30.672;2022-12-11T05:36:15;101411.81;;;-7.88;100.00
53758;BME280;39674;59.860;30.672;2022-12-11T05:38:46;101414.19;;;-7.95;100.00
53758;BME280;39674;59.860;30.672;2022-12-11T05:41:14;101419.22;;;-7.98;100.00
53758;BME280;39674;59.860;30.672;2022-12-11T05:43:54;101413.97;;;-8.01;100.00
53758;BME280;39674;59.860;30.672;2022-12-11T05:46:26;101419.00;;;-8.04;100.00
53758;BME280;39674;59.860;30.672;2022-12-11T05:48:59;101424.00;;;-8.07;100.00
53758;BME280;39674;59.860;30.672;2022-12-11T05:51:38;101423.91;;;-8.10;100.00
53758;BME280;39674;59.860;30.672;2022-12-11T05:54:09;101428.81;;;-8.16;100.00
53758;BME280;39674;59.860;30.672;2022-12-11T05:56:39;101431.78;;;-8.28;100.00
53758;BME280;39674;59.860;30.672;2022-12-11T05:59:08;101436.72;;;-8.33;100.00
53758;BME280;39674;59.860;30.672;2022-12-11T06:01:46;101440.00;;;-8.37;100.00
53758;BME280;39674;59.860;30.672;2022-12-11T06:04:14;101443.25;;;-8.41;100.00
53758;BME280;39674;59.860;30.672;2022-12-11T06:06:55;101450.88;;;-8.43;100.00
53758;BME280;39674;59.860;30.672;2022-12-11T06:09:26;101439.56;;;-8.49;100.00
53758;BME280;39674;59.860;30.672;2022-12-11T06:12:03;101446.09;;;-8.58;100.00
53758;BME280;39674;59.860;30.672;2022-12-11T06:14:37;101450.34;;;-8.58;100.00
53758;BME280;39674;59.860;30.672;2022-12-11T06:17:09;101452.81;;;-8.60;100.00
53758;BME280;39674;59.860;30.672;2022-12-11T06:19:43;101451.06;;;-8.61;100.00
53758;BME280;39674;59.860;30.672;2022-12-11T06:22:18;101453.53;;;-8.64;100.00
53758;BME280;39674;59.860;30.672;2022-12-11T06:24:51;101445.72;;;-8.67;100.00
53758;BME280;39674;59.860;30.672;2022-12-11T06:27:34;101448.97;;;-8.71;100.00
53758;BME280;39674;59.860;30.672;2022-12-11T06:30:15;101466.78;;;-8.74;100.00
53758;BME280;39674;59.860;30.672;2022-12-11T06:32:47;101464.09;;;-8.77;100.00
53758;BME280;39674;59.860;30.672;2022-12-11T06:35:21;101466.28;;;-8.87;100.00
53758;BME280;39674;59.860;30.672;2022-12-11T06:37:54;101462.00;;;-8.88;100.00
53758;BME280;39674;59.860;30.672;2022-12-11T06:40:24;101461.75;;;-8.94;100.00
53758;BME280;39674;59.860;30.672;2022-12-11T06:42:55;101465.75;;;-9.00;100.00
53758;BME280;39674;59.860;30.672;2022-12-11T06:45:27;101461.47;;;-9.00;100.00
53758;BME280;39674;59.860;30.672;2022-12-11T06:47:59;101469.16;;;-9.00;100.00
53758;BME280;39674;59.860;30.672;2022-12-11T06:50:31;101475.13;;;-9.01;100.00
53758;BME280;39674;59.860;30.672;2022-12-11T06:53:11;101475.88;;;-9.04;100.00
53758;BME280;39674;59.860;30.672;2022-12-11T06:55:50;101476.50;;;-9.09;100.00
53758;BME280;39674;59.860;30.672;2022-12-11T06:58:24;101465.84;;;-9.19;100.00
53758;BME280;39674;59.860;30.672;2022-12-11T07:00:56;101469.22;;;-9.20;100.00
53758;BME280;39674;59.860;30.672;2022-12-11T07:03:26;101465.34;;;-9.31;100.00
53758;BME280;39674;59.860;30.672;2022-12-11T07:05:58;101470.09;;;-9.40;100.00
53758;BME280;39674;59.860;30.672;2022-12-11T07:08:38;101474.22;;;-9.44;100.00
53758;BME280;39674;59.860;30.672;2022-12-11T07:11:08;101473.47;;;-9.41;100.00
53758;BME280;39674;59.860;30.672;2022-12-11T07:13:38;101478.69;;;-9.38;100.00
53758;BME280;39674;59.860;30.672;2022-12-11T07:16:12;101481.78;;;-9.45;100.00
53758;BME280;39674;59.860;30.672;2022-12-11T07:18:42;101452.06;;;-9.63;100.00
53758;BME280;39674;59.860;30.672;2022-12-11T07:21:13;101482.06;;;-9.39;100.00
53758;BME280;39674;59.860;30.672;2022-12-11T07:23:43;101480.34;;;-9.40;100.00
53758;BME280;39674;59.860;30.672;2022-12-11T07:26:17;101480.19;;;-9.43;100.00
53758;BME280;39674;59.860;30.672;2022-12-11T07:28:50;101481.28;;;-9.58;100.00
53758;BME280;39674;59.860;30.672;2022-12-11T07:31:22;101479.53;;;-9.59;100.00
53758;BME280;39674;59.860;30.672;2022-12-11T07:33:54;101477.81;;;-9.60;100.00
53758;BME280;39674;59.860;30.672;2022-12-11T07:36:25;101478.53;;;-9.62;100.00
53758;BME280;39674;59.860;30.672;2022-12-11T07:38:59;101473.34;;;-9.64;100.00
53758;BME280;39674;59.860;30.672;2022-12-11T07:41:44;101475.16;;;-9.61;100.00
53758;BME280;39674;59.860;30.672;2022-12-11T07:44:12;101471.72;;;-9.62;100.00
53758;BME280;39674;59.860;30.672;2022-12-11T07:46:43;101472.53;;;-9.63;100.00
53758;BME280;39674;59.860;30.672;2022-12-11T07:49:12;101477.66;;;-9.63;100.00
53758;BME280;39674;59.860;30.672;2022-12-11T07:51:41;101473.50;;;-9.61;100.00
53758;BME280;39674;59.860;30.672;2022-12-11T07:54:12;101473.50;;;-9.61;100.00
53758;BME280;39674;59.860;30.672;2022-12-11T07:56:47;101476.09;;;-9.59;100.00
53758;BME280;39674;59.860;30.672;2022-12-11T07:59:15;101481.91;;;-9.63;100.00
53758;BME280;39674;59.860;30.672;2022-12-11T08:01:47;101487.03;;;-9.63;100.00
53758;BME280;39674;59.860;30.672;2022-12-11T08:04:17;101498.13;;;-9.63;100.00
53758;BME280;39674;59.860;30.672;2022-12-11T08:06:50;101493.75;;;-9.65;100.00
53758;BME280;39674;59.860;30.672;2022-12-11T08:09:20;101494.44;;;-9.70;100.00
53758;BME280;39674;59.860;30.672;2022-12-11T08:11:51;101495.28;;;-9.69;100.00
53758;BME280;39674;59.860;30.672;2022-12-11T08:14:26;101497.25;;;-9.63;100.00
53758;BME280;39674;59.860;30.672;2022-12-11T08:16:57;101492.19;;;-9.62;100.00
53758;BME280;39674;59.860;30.672;2022-12-11T08:19:31;101498.25;;;-9.60;100.00
53758;BME280;39674;59.860;30.672;2022-12-11T08:22:02;101499.91;;;-9.60;100.00
53758;BME280;39674;59.860;30.672;2022-12-11T08:24:32;101505.94;;;-9.60;100.00
53758;BME280;39674;59.860;30.672;2022-12-11T08:27:02;101504.22;;;-9.59;100.00
53758;BME280;39674;59.860;30.672;2022-12-11T08:29:35;101511.03;;;-9.60;100.00
53758;BME280;39674;59.860;30.672;2022-12-11T08:32:04;101506.03;;;-9.57;100.00
53758;BME280;39674;59.860;30.672;2022-12-11T08:34:33;101512.13;;;-9.55;100.00
53758;BME280;39674;59.860;30.672;2022-12-11T08:37:06;101515.75;;;-9.49;100.00
53758;BME280;39674;59.860;30.672;2022-12-11T08:39:43;101524.38;;;-9.47;100.00
53758;BME280;39674;59.860;30.672;2022-12-11T08:42:12;101529.59;;;-9.44;100.00
53758;BME280;39674;59.860;30.672;2022-12-11T08:45:03;101535.59;;;-9.44;100.00
53758;BME280;39674;59.860;30.672;2022-12-11T08:47:34;101542.13;;;-9.31;100.00
53758;BME280;39674;59.860;30.672;2022-12-11T08:50:04;101547.38;;;-9.28;100.00
53758;BME280;39674;59.860;30.672;2022-12-11T08:52:33;101554.63;;;-9.17;100.00
53758;BME280;39674;59.860;30.672;2022-12-11T08:55:06;101548.25;;;-9.06;100.00
53758;BME280;39674;59.860;30.672;2022-12-11T08:57:36;101544.59;;;-8.92;100.00
53758;BME280;39674;59.860;30.672;2022-12-11T09:00:06;101545.25;;;-8.76;100.00
53758;BME280;39674;59.860;30.672;2022-12-11T09:02:36;101549.88;;;-8.67;100.00
53758;BME280;39674;59.860;30.672;2022-12-11T09:05:04;101558.78;;;-8.58;100.00
53758;BME280;39674;59.860;30.672;2022-12-11T09:07:38;101554.63;;;-8.56;100.00
53758;BME280;39674;59.860;30.672;2022-12-11T09:10:09;101555.66;;;-8.50;100.00
53758;BME280;39674;59.860;30.672;2022-12-11T09:12:41;101563.56;;;-8.44;100.00
53758;BME280;39674;59.860;30.672;2022-12-11T09:15:11;101560.72;;;-8.29;100.00
53758;BME280;39674;59.860;30.672;2022-12-11T09:17:41;101566.84;;;-8.26;100.00
53758;BME280;39674;59.860;30.672;2022-12-11T09:20:17;101563.72;;;-8.18;100.00
53758;BME280;39674;59.860;30.672;2022-12-11T09:22:45;101569.09;;;-8.12;100.00
53758;BME280;39674;59.860;30.672;2022-12-11T09:25:17;101562.44;;;-8.07;100.00
53758;BME280;39674;59.860;30.672;2022-12-11T09:27:47;101561.91;;;-7.98;100.00
53758;BME280;39674;59.860;30.672;2022-12-11T09:30:20;101564.84;;;-7.89;100.00
53758;BME280;39674;59.860;30.672;2022-12-11T09:32:50;101561.63;;;-7.83;100.00
53758;BME280;39674;59.860;30.672;2022-12-11T09:35:19;101565.25;;;-7.78;100.00
53758;BME280;39674;59.860;30.672;2022-12-11T09:37:54;101560.34;;;-7.72;100.00
53758;BME280;39674;59.860;30.672;2022-12-11T09:40:24;101561.31;;;-7.68;100.00
53758;BME280;39674;59.860;30.672;2022-12-11T09:42:54;101561.59;;;-7.61;100.00
53758;BME280;39674;59.860;30.672;2022-12-11T09:45:25;101567.75;;;-7.55;100.00
53758;BME280;39674;59.860;30.672;2022-12-11T09:47:53;101569.66;;;-7.51;100.00
53758;BME280;39674;59.860;30.672;2022-12-11T09:50:30;101563.78;;;-7.47;100.00
53758;BME280;39674;59.860;30.672;2022-12-11T09:53:03;101561.34;;;-7.44;100.00
53758;BME280;39674;59.860;30.672;2022-12-11T09:58:49;101568.44;;;-7.37;100.00
53758;BME280;39674;59.860;30.672;2022-12-11T10:01:31;101571.94;;;-7.35;100.00
53758;BME280;39674;59.860;30.672;2022-12-11T10:04:17;101568.69;;;-7.31;100.00
53758;BME280;39674;59.860;30.672;2022-12-11T10:07:33;101572.28;;;-7.26;100.00
53758;BME280;39674;59.860;30.672;2022-12-11T10:14:31;101560.50;;;-7.19;100.00
53758;BME280;39674;59.860;30.672;2022-12-11T10:17:51;101561.44;;;-7.17;100.00
53758;BME280;39674;59.860;30.672;2022-12-11T10:21:16;101565.81;;;-7.14;100.00
53758;BME280;39674;59.860;30.672;2022-12-11T10:25:36;101560.72;;;-7.13;100.00
53758;BME280;39674;59.860;30.672;2022-12-11T10:28:19;101562.50;;;-7.10;100.00
53758;BME280;39674;59.860;30.672;2022-12-11T10:51:44;101538.50;;;-7.12;100.00
53758;BME280;39674;59.860;30.672;2022-12-11T10:54:16;101541.97;;;-7.10;100.00
53758;BME280;39674;59.860;30.672;2022-12-11T10:59:35;101531.81;;;-7.07;100.00
53758;BME280;39674;59.860;30.672;2022-12-11T11:02:05;101529.28;;;-7.05;100.00
53758;BME280;39674;59.860;30.672;2022-12-11T11:04:35;101530.22;;;-7.03;100.00
53758;BME280;39674;59.860;30.672;2022-12-11T11:07:12;101537.16;;;-7.01;100.00
53758;BME280;39674;59.860;30.672;2022-12-11T11:10:03;101539.72;;;-7.01;100.00
53758;BME280;39674;59.860;30.672;2022-12-11T11:12:38;101541.53;;;-6.98;100.00
53758;BME280;39674;59.860;30.672;2022-12-11T11:15:09;101533.00;;;-6.97;100.00
53758;BME280;39674;59.860;30.672;2022-12-11T11:17:43;101537.47;;;-6.91;100.00
53758;BME280;39674;59.860;30.672;2022-12-11T11:20:13;101543.44;;;-6.93;100.00
53758;BME280;39674;59.860;30.672;2022-12-11T11:22:45;101538.34;;;-6.91;100.00
53758;BME280;39674;59.860;30.672;2022-12-11T11:25:15;101551.16;;;-6.93;100.00
53758;BME280;39674;59.860;30.672;2022-12-11T11:27:55;101551.22;;;-6.89;100.00
53758;BME280;39674;59.860;30.672;2022-12-11T11:30:27;101550.41;;;-6.88;100.00
53758;BME280;39674;59.860;30.672;2022-12-11T11:33:01;101556.50;;;-6.86;100.00
53758;BME280;39674;59.860;30.672;2022-12-11T11:35:30;101552.22;;;-6.86;100.00
53758;BME280;39674;59.860;30.672;2022-12-11T11:40:47;101559.97;;;-6.84;100.00
53758;BME280;39674;59.860;30.672;2022-12-11T11:43:22;101546.28;;;-6.83;100.00
53758;BME280;39674;59.860;30.672;2022-12-11T11:45:57;101559.88;;;-6.87;100.00
53758;BME280;39674;59.860;30.672;2022-12-11T11:48:30;101559.91;;;-6.86;100.00
53758;BME280;39674;59.860;30.672;2022-12-11T11:51:06;101566.88;;;-6.82;100.00
53758;BME280;39674;59.860;30.672;2022-12-11T11:53:36;101566.00;;;-6.84;100.00
53758;BME280;39674;59.860;30.672;2022-12-11T11:56:17;101569.41;;;-6.83;100.00
53758;BME280;39674;59.860;30.672;2022-12-11T11:58:49;101557.47;;;-6.83;100.00
53758;BME280;39674;59.860;30.672;2022-12-11T12:01:21;101561.72;;;-6.83;100.00
53758;BME280;39674;59.860;30.672;2022-12-11T12:03:51;101558.31;;;-6.82;100.00
53758;BME280;39674;59.860;30.672;2022-12-11T12:06:35;101561.72;;;-6.83;100.00
53758;BME280;39674;59.860;30.672;2022-12-11T12:09:45;101561.81;;;-6.80;100.00
53758;BME280;39674;59.860;30.672;2022-12-11T12:12:29;101561.06;;;-6.78;100.00
53758;BME280;39674;59.860;30.672;2022-12-11T12:15:07;101560.16;;;-6.78;100.00
53758;BME280;39674;59.860;30.672;2022-12-11T12:17:39;101572.09;;;-6.80;100.00
53758;BME280;39674;59.860;30.672;2022-12-11T12:20:37;101559.25;;;-6.80;100.00
53758;BME280;39674;59.860;30.672;2022-12-11T12:23:08;101556.69;;;-6.80;100.00
53758;BME280;39674;59.860;30.672;2022-12-11T12:25:43;101563.56;;;-6.79;100.00
53758;BME280;39674;59.860;30.672;2022-12-11T12:28:24;101530.41;;;-6.99;100.00
53758;BME280;39674;59.860;30.672;2022-12-11T12:31:03;101555.03;;;-6.78;100.00
53758;BME280;39674;59.860;30.672;2022-12-11T12:33:52;101562.72;;;-6.78;100.00
53758;BME280;39674;59.860;30.672;2022-12-11T12:36:29;101563.63;;;-6.78;100.00
53758;BME280;39674;59.860;30.672;2022-12-11T12:39:01;101562.69;;;-6.80;100.00
53758;BME280;39674;59.860;30.672;2022-12-11T12:41:33;101563.56;;;-6.79;100.00
53758;BME280;39674;59.860;30.672;2022-12-11T12:44:14;101566.97;;;-6.80;100.00
53758;BME280;39674;59.860;30.672;2022-12-11T12:46:54;101569.56;;;-6.79;100.00
53758;BME280;39674;59.860;30.672;2022-12-11T12:49:31;101568.72;;;-6.79;100.00
53758;BME280;39674;59.860;30.672;2022-12-11T12:52:30;101572.16;;;-6.79;100.00
53758;BME280;39674;59.860;30.672;2022-12-11T12:58:39;101565.22;;;-6.81;100.00
53758;BME280;39674;59.860;30.672;2022-12-11T13:01:19;101570.34;;;-6.81;100.00
53758;BME280;39674;59.860;30.672;2022-12-11T13:04:02;101565.31;;;-6.78;100.00
53758;BME280;39674;59.860;30.672;2022-12-11T13:06:32;101564.44;;;-6.79;100.00
53758;BME280;39674;59.860;30.672;2022-12-11T13:09:10;101566.97;;;-6.80;100.00
53758;BME280;39674;59.860;30.672;2022-12-11T13:11:39;101565.31;;;-6.78;100.00
53758;BME280;39674;59.860;30.672;2022-12-11T13:14:24;101573.84;;;-6.79;100.00
53758;BME280;39674;59.860;30.672;2022-12-11T13:17:21;101567.88;;;-6.78;100.00
53758;BME280;39674;59.860;30.672;2022-12-11T13:20:08;101567.81;;;-6.80;100.00
53758;BME280;39674;59.860;30.672;2022-12-11T13:22:49;101573.00;;;-6.78;100.00
53758;BME280;39674;59.860;30.672;2022-12-11T13:25:22;101570.44;;;-6.78;100.00
53758;BME280;39674;59.860;30.672;2022-12-11T13:28:06;101570.44;;;-6.78;100.00
53758;BME280;39674;59.860;30.672;2022-12-11T13:31:42;101579.09;;;-6.76;100.00
53758;BME280;39674;59.860;30.672;2022-12-11T13:34:04;101573.94;;;-6.76;100.00
53758;BME280;39674;59.860;30.672;2022-12-11T13:36:54;101579.09;;;-6.76;100.00
53758;BME280;39674;59.860;30.672;2022-12-11T13:39:36;101573.97;;;-6.74;100.00
53758;BME280;39674;59.860;30.672;2022-12-11T13:42:57;101567.97;;;-6.75;100.00
53758;BME280;39674;59.860;30.672;2022-12-11T13:48:26;101565.41;;;-6.75;100.00
53758;BME280;39674;59.860;30.672;2022-12-11T13:51:12;101562.88;;;-6.73;100.00